createdAt,value
2018-06-08T00:01:38.673Z,48.55
2018-06-08T00:04:09.614Z,48.62
2018-06-08T00:06:40.279Z,48.85
2018-06-08T00:09:11.549Z,49.21
2018-06-08T00:11:42.366Z,49.23
2018-06-08T00:14:13.540Z,49.49
2018-06-08T00:16:44.328Z,49.33
2018-06-08T00:19:15.617Z,49.28
2018-06-08T00:21:46.322Z,49.64
2018-06-08T00:24:17.609Z,49.67
2018-06-08T00:26:48.390Z,49.93
2018-06-08T00:29:19.609Z,49.90
2018-06-08T00:31:50.065Z,50.12
2018-06-08T00:34:20.453Z,50.32
2018-06-08T00:36:51.657Z,50.36
2018-06-08T00:39:22.271Z,50.18
2018-06-08T00:41:53.609Z,50.64
2018-06-08T00:44:24.254Z,50.85
2018-06-08T00:46:55.589Z,51.05
2018-06-08T00:49:26.204Z,51.20
2018-06-08T00:51:57.641Z,51.19
2018-06-08T00:54:28.313Z,51.30
2018-06-08T00:57:07.477Z,51.58
2018-06-08T00:59:37.255Z,51.35
2018-06-08T01:02:07.093Z,51.46
2018-06-08T01:04:36.914Z,51.70
2018-06-08T01:07:06.840Z,51.54
2018-06-08T01:09:37.097Z,51.70
2018-06-08T01:12:06.842Z,52.12
2018-06-08T01:14:37.232Z,52.00
2018-06-08T01:17:06.997Z,52.28
2018-06-08T01:19:37.725Z,52.51
2018-06-08T01:22:08.282Z,52.48
2018-06-08T01:24:39.549Z,52.79
2018-06-08T01:27:10.275Z,52.69
2018-06-08T01:29:41.649Z,52.59
2018-06-08T01:32:12.287Z,52.97
2018-06-08T01:34:43.625Z,52.66
2018-06-08T01:37:14.236Z,52.77
2018-06-08T01:39:44.684Z,53.23
2018-06-08T01:42:15.309Z,53.01
2018-06-08T01:44:46.569Z,53.54
2018-06-08T01:47:17.297Z,53.20
2018-06-08T01:49:48.576Z,53.49
2018-06-08T01:52:19.309Z,54.10
2018-06-08T01:54:50.652Z,54.55
2018-06-08T01:57:21.261Z,54.02
2018-06-08T01:59:52.690Z,53.87
2018-06-08T02:09:22.879Z,53.67
2018-06-08T02:11:52.900Z,53.79
2018-06-08T02:14:22.876Z,54.02
2018-06-08T02:16:52.974Z,54.16
2018-06-08T02:19:23.881Z,54.20
2018-06-08T02:21:53.953Z,54.42
2018-06-08T02:24:23.865Z,54.38
2018-06-08T02:26:53.933Z,54.46
2018-06-08T02:29:23.839Z,54.60
2018-06-08T02:31:53.597Z,54.87
2018-06-08T02:34:23.565Z,55.06
2018-06-08T02:36:53.348Z,55.00
2018-06-08T02:39:23.077Z,55.49
2018-06-08T02:41:53.055Z,56.10
2018-06-08T02:44:22.941Z,55.87
2018-06-08T02:46:52.901Z,55.84
2018-06-08T02:49:22.926Z,55.77
2018-06-08T02:51:52.837Z,55.95
2018-06-08T02:54:22.886Z,56.26
2018-06-08T02:56:52.877Z,56.01
2018-06-08T02:59:22.848Z,56.45
2018-06-08T03:01:52.875Z,56.24
2018-06-08T03:04:22.821Z,56.41
2018-06-08T03:06:52.830Z,56.19
2018-06-08T03:09:22.930Z,56.20
2018-06-08T03:11:52.822Z,56.49
2018-06-08T03:14:22.873Z,56.84
2018-06-08T03:16:52.899Z,56.60
2018-06-08T03:19:22.877Z,57.03
2018-06-08T03:21:52.886Z,57.27
2018-06-08T03:24:22.857Z,56.67
2018-06-08T03:26:52.885Z,58.00
2018-06-08T03:29:22.925Z,57.37
2018-06-08T03:31:52.842Z,56.95
2018-06-08T03:34:22.915Z,57.23
2018-06-08T03:36:52.838Z,57.04
2018-06-08T03:39:22.921Z,57.31
2018-06-08T03:41:52.813Z,57.10
2018-06-08T03:44:22.885Z,57.53
2018-06-08T03:46:53.238Z,57.82
2018-06-08T03:49:23.025Z,57.29
2018-06-08T03:51:52.925Z,57.51
2018-06-08T03:54:22.913Z,57.82
2018-06-08T03:56:53.257Z,57.72
2018-06-08T03:59:23.034Z,58.17
2018-06-08T04:01:52.846Z,58.13
2018-06-08T04:04:22.829Z,59.01
2018-06-08T04:06:52.786Z,57.69
2018-06-08T04:09:22.929Z,59.10
2018-06-08T04:11:52.829Z,58.92
2018-06-08T04:14:22.908Z,58.42
2018-06-08T04:16:52.796Z,59.49
2018-06-08T04:19:22.892Z,59.37
2018-06-08T04:21:52.783Z,58.93
2018-06-08T04:24:22.853Z,59.92
2018-06-08T04:26:52.847Z,59.58
2018-06-08T04:29:22.839Z,58.47
2018-06-08T04:31:52.845Z,60.60
2018-06-08T04:34:22.797Z,59.36
2018-06-08T04:36:52.854Z,59.47
2018-06-08T04:39:22.826Z,59.28
2018-06-08T04:41:52.830Z,59.10
2018-06-08T04:44:22.913Z,59.26
2018-06-08T04:46:52.777Z,59.37
2018-06-08T04:49:22.912Z,59.24
2018-06-08T04:51:52.793Z,59.12
2018-06-08T04:54:22.889Z,58.78
2018-06-08T04:56:53.376Z,58.78
2018-06-08T04:59:23.332Z,58.18
2018-06-08T05:01:53.073Z,58.16
2018-06-08T05:04:22.861Z,58.54
2018-06-08T05:06:52.869Z,57.99
2018-06-08T05:09:22.767Z,58.21
2018-06-08T05:11:52.832Z,57.99
2018-06-08T05:14:22.911Z,58.05
2018-06-08T05:16:52.818Z,56.72
2018-06-08T05:19:22.913Z,56.30
2018-06-08T05:21:52.766Z,56.31
2018-06-08T05:24:23.273Z,55.86
2018-06-08T05:26:53.014Z,55.93
2018-06-08T05:29:22.929Z,57.71
2018-06-08T05:31:52.901Z,56.63
2018-06-08T05:34:23.154Z,56.15
2018-06-08T05:36:52.901Z,55.72
2018-06-08T05:39:22.848Z,55.74
2018-06-08T05:41:52.888Z,55.57
2018-06-08T05:44:22.826Z,55.20
2018-06-08T05:46:52.879Z,55.84
2018-06-08T05:49:22.817Z,55.39
2018-06-08T05:51:52.798Z,55.16
2018-06-08T05:54:22.866Z,54.71
2018-06-08T05:56:52.817Z,54.55
2018-06-08T05:59:22.861Z,54.27
2018-06-08T06:01:53.181Z,54.29
2018-06-08T06:04:23.037Z,54.71
2018-06-08T06:06:52.813Z,54.26
2018-06-08T06:09:22.897Z,53.96
2018-06-08T06:11:54.538Z,53.58
2018-06-08T06:14:28.260Z,53.77
2018-06-08T06:16:58.173Z,53.21
2018-06-08T06:19:28.584Z,52.77
2018-06-08T06:21:58.680Z,52.86
2018-06-08T06:24:28.878Z,52.60
2018-06-08T06:26:58.944Z,52.17
2018-06-08T06:29:31.090Z,52.53
2018-06-08T06:32:00.964Z,51.95
2018-06-08T06:34:30.994Z,51.38
2018-06-08T06:37:01.008Z,50.60
2018-06-08T06:39:30.980Z,49.60
2018-06-08T06:42:01.206Z,49.31
2018-06-08T06:44:31.537Z,49.22
2018-06-08T06:47:01.338Z,48.75
2018-06-08T06:49:31.620Z,49.04
2018-06-08T06:52:01.725Z,48.82
2018-06-08T06:54:31.951Z,48.97
2018-06-08T06:57:01.991Z,48.75
2018-06-08T06:59:31.940Z,48.40
2018-06-08T07:02:01.803Z,48.45
2018-06-08T07:09:20.885Z,46.49
2018-06-08T07:11:51.898Z,45.96
2018-06-08T07:14:21.710Z,45.08
2018-06-08T07:16:52.542Z,45.12
2018-06-08T07:19:22.826Z,44.78
2018-06-08T07:21:53.858Z,44.58
2018-06-08T07:24:24.185Z,43.33
2018-06-08T07:26:56.852Z,43.41
2018-06-08T07:29:27.907Z,42.41
2018-06-08T07:31:58.159Z,43.02
2018-06-08T07:34:28.790Z,42.26
2018-06-08T07:37:00.493Z,42.64
2018-06-08T07:39:30.661Z,42.04
2018-06-08T07:42:00.830Z,41.91
2018-06-08T07:44:30.624Z,41.39
2018-06-08T07:47:01.126Z,41.29
2018-06-08T07:49:32.005Z,39.64
2018-06-08T07:52:03.542Z,39.69
2018-06-08T07:54:33.711Z,39.80
2018-06-08T07:57:03.925Z,39.63
2018-06-08T07:59:35.954Z,39.25
2018-06-08T08:02:06.396Z,39.03
2018-06-08T08:04:36.271Z,38.50
2018-06-08T08:07:07.054Z,38.91
2018-06-08T08:09:38.062Z,37.51
2018-06-08T08:12:08.337Z,37.44
2018-06-08T08:14:38.594Z,36.46
2018-06-08T08:17:11.190Z,36.80
2018-06-08T08:19:43.222Z,36.97
2018-06-08T08:22:13.462Z,35.13
2018-06-08T08:24:43.779Z,34.45
2018-06-08T08:27:13.838Z,34.70
2018-06-08T08:29:45.030Z,34.67
2018-06-08T08:32:16.181Z,33.27
2018-06-08T08:34:46.877Z,32.36
2018-06-08T08:37:16.630Z,33.07
2018-06-08T08:39:50.110Z,33.58
2018-06-08T08:42:20.318Z,33.77
2018-06-08T08:44:50.594Z,33.45
2018-06-08T08:47:20.783Z,33.11
2018-06-08T08:49:55.070Z,32.19
2018-06-08T08:52:26.577Z,32.35
2018-06-08T08:54:58.722Z,32.04
2018-06-08T08:57:29.478Z,31.90
2018-06-08T09:00:01.002Z,32.61
2018-06-08T09:02:30.877Z,31.65
2018-06-08T09:05:01.760Z,31.13
2018-06-08T09:07:33.186Z,31.23
2018-06-08T09:10:04.431Z,30.50
2018-06-08T09:12:35.893Z,30.33
2018-06-08T09:15:10.853Z,29.49
2018-06-08T09:17:42.322Z,30.39
2018-06-08T09:20:12.766Z,29.71
2018-06-08T09:22:44.345Z,30.04
2018-06-08T09:25:14.685Z,30.41
2018-06-08T09:27:44.582Z,30.46
2018-06-08T09:30:17.370Z,30.88
2018-06-08T09:32:49.557Z,30.85
2018-06-08T09:35:19.356Z,30.40
2018-06-08T09:37:50.376Z,29.53
2018-06-08T09:40:21.907Z,30.46
2018-06-08T09:42:53.637Z,30.35
2018-06-08T09:45:24.826Z,30.26
2018-06-08T09:47:56.649Z,29.68
2018-06-08T09:50:28.152Z,29.90
2018-06-08T09:53:01.709Z,30.91
2018-06-08T09:55:32.842Z,30.62
2018-06-08T09:58:04.081Z,29.77
2018-06-08T10:00:39.813Z,29.61
2018-06-08T10:03:10.985Z,30.48
2018-06-08T10:05:40.747Z,29.75
2018-06-08T10:08:10.661Z,29.44
2018-06-08T10:10:40.369Z,29.49
2018-06-08T10:13:10.526Z,30.58
2018-06-08T10:15:40.569Z,29.75
2018-06-08T10:18:10.624Z,29.64
2018-06-08T10:20:40.560Z,29.80
2018-06-08T10:23:10.591Z,29.29
2018-06-08T10:25:40.278Z,29.70
2018-06-08T10:28:10.051Z,29.80
2018-06-08T10:30:39.801Z,29.71
2018-06-08T10:33:09.462Z,29.33
2018-06-08T10:35:39.201Z,29.28
2018-06-08T10:38:09.402Z,29.18
2018-06-08T10:40:39.141Z,29.59
2018-06-08T10:43:08.962Z,29.50
2018-06-08T10:45:38.770Z,29.71
2018-06-08T10:48:08.540Z,29.33
2018-06-08T10:50:38.825Z,29.64
2018-06-08T10:53:08.551Z,29.48
2018-06-08T10:55:39.214Z,29.79
2018-06-08T10:58:10.513Z,30.04
2018-06-08T11:00:41.638Z,29.59
2018-06-08T11:03:11.343Z,29.45
2018-06-08T11:05:42.466Z,29.65
2018-06-08T11:08:13.229Z,29.47
2018-06-08T11:10:44.462Z,30.53
2018-06-08T11:13:15.266Z,30.83
2018-06-08T11:15:46.442Z,32.00
2018-06-08T11:18:17.241Z,31.60
2018-06-08T11:20:48.561Z,31.18
2018-06-08T11:23:19.226Z,30.77
2018-06-08T11:25:50.583Z,30.70
2018-06-08T11:28:21.281Z,30.60
2018-06-08T11:30:52.525Z,31.15
2018-06-08T11:33:22.279Z,30.18
2018-06-08T11:35:53.524Z,30.51
2018-06-08T11:38:24.266Z,30.19
2018-06-08T11:40:55.463Z,29.21
2018-06-08T11:43:26.266Z,28.87
2018-06-08T11:45:57.487Z,28.89
2018-06-08T11:48:28.225Z,28.92
2018-06-08T11:50:59.538Z,28.53
2018-06-08T11:53:30.235Z,28.90
2018-06-08T11:56:01.547Z,28.75
2018-06-08T11:58:32.229Z,28.63
2018-06-08T12:01:03.565Z,28.96
2018-06-08T12:03:33.309Z,29.20
2018-06-08T12:06:04.438Z,27.96
2018-06-08T12:08:35.254Z,28.91
2018-06-08T12:11:06.921Z,28.86
2018-06-08T12:13:38.478Z,28.58
2018-06-08T12:16:08.459Z,28.49
2018-06-08T12:18:39.218Z,29.57
2018-06-08T12:21:10.634Z,29.24
2018-06-08T12:23:41.375Z,29.97
2018-06-08T12:26:12.314Z,29.75
2018-06-08T12:28:43.569Z,30.61
2018-06-08T12:31:14.478Z,29.51
2018-06-08T12:33:44.294Z,29.86
2018-06-08T12:36:15.681Z,29.09
2018-06-08T12:38:46.326Z,29.90
2018-06-08T12:41:17.418Z,29.67
2018-06-08T12:43:48.237Z,28.93
2018-06-08T12:46:18.653Z,29.23
2018-06-08T12:48:49.295Z,29.74
2018-06-08T12:51:20.577Z,30.31
2018-06-08T12:53:51.329Z,30.05
2018-06-08T12:56:22.589Z,29.97
2018-06-08T12:58:53.301Z,29.90
2018-06-08T13:01:24.613Z,29.93
2018-06-08T13:03:55.330Z,28.87
2018-06-08T13:06:26.578Z,28.96
2018-06-08T13:08:57.363Z,29.64
2018-06-08T13:11:28.212Z,29.36
2018-06-08T13:13:59.733Z,28.31
2018-06-08T13:16:30.243Z,29.13
2018-06-08T13:19:00.661Z,28.39
2018-06-08T13:21:31.339Z,28.75
2018-06-08T13:24:02.591Z,27.84
2018-06-08T13:26:33.601Z,27.94
2018-06-08T13:29:04.538Z,29.55
2018-06-08T13:31:35.741Z,29.97
2018-06-08T13:34:05.583Z,29.94
2018-06-08T13:36:36.256Z,30.54
2018-06-08T13:50:34.880Z,28.70
2018-06-08T13:53:04.943Z,29.06
2018-06-08T13:55:34.840Z,27.94
2018-06-08T13:58:04.666Z,27.64
2018-06-08T14:00:34.517Z,27.80
2018-06-08T14:03:04.321Z,27.87
2018-06-08T14:05:34.145Z,27.69
2018-06-08T14:08:03.989Z,28.50
2018-06-08T14:10:33.790Z,28.71
2018-06-08T14:13:04.123Z,28.58
2018-06-08T14:15:33.910Z,28.33
2018-06-08T14:18:03.747Z,27.74
2018-06-08T14:20:33.555Z,27.46
2018-06-08T14:23:03.431Z,27.53
2018-06-08T14:25:33.286Z,27.57
2018-06-08T14:28:03.078Z,27.29
2018-06-08T14:30:32.937Z,27.12
2018-06-08T14:33:02.756Z,27.46
2018-06-08T14:35:32.631Z,27.50
2018-06-08T14:38:02.456Z,28.24
2018-06-08T14:40:32.299Z,27.59
2018-06-08T14:43:02.130Z,28.55
2018-06-08T14:45:32.001Z,29.26
2018-06-08T14:48:01.863Z,30.22
2018-06-08T14:50:31.787Z,30.51
2018-06-08T14:53:01.598Z,30.75
2018-06-08T14:55:31.446Z,30.97
2018-06-08T14:58:01.293Z,30.81
2018-06-08T15:00:31.123Z,31.28
2018-06-08T15:03:00.962Z,31.10
2018-06-08T15:05:31.153Z,30.72
2018-06-08T15:08:01.017Z,31.01
2018-06-08T15:10:30.871Z,30.84
2018-06-08T15:13:00.855Z,30.98
2018-06-08T15:15:30.700Z,31.01
2018-06-08T15:18:00.601Z,31.37
2018-06-08T15:20:30.429Z,31.69
2018-06-08T15:23:00.358Z,31.32
2018-06-08T15:25:30.162Z,30.92
2018-06-08T15:27:59.986Z,31.27
2018-06-08T15:30:29.868Z,30.61
2018-06-08T15:32:59.757Z,30.08
2018-06-08T15:35:29.626Z,30.46
2018-06-08T15:37:59.446Z,30.72
2018-06-08T15:40:29.445Z,30.44
2018-06-08T15:42:59.438Z,30.17
2018-06-08T15:45:32.898Z,30.61
2018-06-08T15:48:02.717Z,30.47
2018-06-08T15:50:32.609Z,30.97
2018-06-08T15:53:02.486Z,30.98
2018-06-08T15:55:32.393Z,31.04
2018-06-08T15:58:02.418Z,30.98
2018-06-08T16:00:32.369Z,31.90
2018-06-08T16:03:02.187Z,32.16
2018-06-08T16:05:31.994Z,32.66
2018-06-08T16:08:01.891Z,32.31
2018-06-08T16:10:31.670Z,32.74
2018-06-08T16:13:01.509Z,32.44
2018-06-08T16:15:31.325Z,32.31
2018-06-08T16:18:01.120Z,32.75
2018-06-08T16:20:30.993Z,32.32
2018-06-08T16:23:00.865Z,32.59
2018-06-08T16:25:30.675Z,32.30
2018-06-08T16:28:00.483Z,32.05
2018-06-08T16:30:30.292Z,32.29
2018-06-08T16:33:00.088Z,31.97
2018-06-08T16:35:29.837Z,31.98
2018-06-08T16:37:59.658Z,32.51
2018-06-08T16:40:29.447Z,32.25
2018-06-08T16:42:59.258Z,33.25
2018-06-08T16:45:29.027Z,33.24
2018-06-08T16:47:58.815Z,33.03
2018-06-08T16:50:28.963Z,33.78
2018-06-08T16:52:58.739Z,33.33
2018-06-08T16:55:28.621Z,33.21
2018-06-08T16:57:58.393Z,34.09
2018-06-08T17:00:28.227Z,34.16
2018-06-08T17:02:58.043Z,34.81
2018-06-08T17:05:27.838Z,34.49
2018-06-08T17:07:57.650Z,35.67
2018-06-08T17:10:27.422Z,35.25
2018-06-08T17:12:57.280Z,35.44
2018-06-08T17:15:27.081Z,35.45
2018-06-08T17:17:56.914Z,35.16
2018-06-08T17:20:26.727Z,34.87
2018-06-08T17:22:56.531Z,35.30
2018-06-08T17:25:26.371Z,36.01
2018-06-08T17:27:56.141Z,37.10
2018-06-08T17:30:25.923Z,36.98
2018-06-08T17:32:55.687Z,37.52
2018-06-08T17:35:25.526Z,37.78
2018-06-08T17:37:58.965Z,38.20
2018-06-08T17:40:46.163Z,38.20
2018-06-08T17:43:16.009Z,39.09
2018-06-08T17:45:45.769Z,38.89
2018-06-08T17:48:15.649Z,39.92
2018-06-08T17:50:45.403Z,40.04
2018-06-08T17:53:15.224Z,39.83
2018-06-08T17:55:45.294Z,40.01
2018-06-08T17:58:15.066Z,40.62
2018-06-08T18:00:44.817Z,41.28
2018-06-08T18:03:14.598Z,41.32
2018-06-08T18:05:44.359Z,41.27
2018-06-08T18:08:14.149Z,41.03
2018-06-08T18:10:43.896Z,41.73
2018-06-08T18:13:13.673Z,42.37
2018-06-08T18:15:43.424Z,42.29
2018-06-08T18:18:13.293Z,41.66
2018-06-08T18:20:43.196Z,42.29
2018-06-08T18:23:12.969Z,41.65
2018-06-08T18:25:42.844Z,42.72
2018-06-08T18:28:12.637Z,42.87
2018-06-08T18:30:42.474Z,42.45
2018-06-08T18:33:12.279Z,42.64
2018-06-08T18:35:42.298Z,43.89
2018-06-08T18:38:12.080Z,44.46
2018-06-08T18:40:42.296Z,44.78
2018-06-08T18:43:12.072Z,44.41
2018-06-08T18:45:42.253Z,44.87
2018-06-08T18:48:11.994Z,45.12
2018-06-08T18:50:41.809Z,45.37
2018-06-08T18:53:11.635Z,45.56
2018-06-08T18:55:41.365Z,45.24
2018-06-08T18:58:11.518Z,45.79
2018-06-08T19:00:41.936Z,45.54
2018-06-08T19:03:12.050Z,46.28
2018-06-08T19:05:41.810Z,46.30
2018-06-08T19:08:11.620Z,46.23
2018-06-08T19:10:41.373Z,46.41
2018-06-08T19:13:11.130Z,46.94
2018-06-08T19:15:40.989Z,47.52
2018-06-08T19:18:10.869Z,47.17
2018-06-08T19:20:40.669Z,47.22
2018-06-08T19:23:10.463Z,47.61
2018-06-08T19:25:40.274Z,47.45
2018-06-08T19:28:10.169Z,48.05
2018-06-08T19:30:39.981Z,48.02
2018-06-08T19:33:10.283Z,48.20
2018-06-08T19:35:40.030Z,48.37
2018-06-08T19:38:09.775Z,48.42
2018-06-08T19:40:39.589Z,48.78
2018-06-08T19:43:09.389Z,49.24
2018-06-08T19:45:39.182Z,49.29
2018-06-08T19:48:08.965Z,49.37
2018-06-08T19:50:38.737Z,49.45
2018-06-08T19:53:08.593Z,49.31
2018-06-08T19:55:38.360Z,49.51
2018-06-08T19:58:08.209Z,49.85
2018-06-08T20:00:37.970Z,49.83
2018-06-08T20:03:07.739Z,49.92
2018-06-08T20:05:37.525Z,49.92
2018-06-08T20:08:07.309Z,50.51
2018-06-08T20:10:37.074Z,50.34
2018-06-08T20:13:07.004Z,50.53
2018-06-08T20:15:36.848Z,51.25
2018-06-08T20:18:07.050Z,52.19
2018-06-08T20:20:36.880Z,52.14
2018-06-08T20:23:06.645Z,52.30
2018-06-08T20:25:36.462Z,52.88
2018-06-08T20:28:06.533Z,52.48
2018-06-08T20:30:36.329Z,52.40
2018-06-08T20:33:06.093Z,52.86
2018-06-08T20:35:35.833Z,52.29
2018-06-08T20:38:05.670Z,52.47
2018-06-08T20:40:35.442Z,52.43
2018-06-08T20:43:05.248Z,52.92
2018-06-08T20:45:34.981Z,53.14
2018-06-08T20:48:04.766Z,53.09
2018-06-08T20:50:34.550Z,52.59
2018-06-08T20:53:04.321Z,52.72
2018-06-08T20:55:34.093Z,53.39
2018-06-08T20:58:03.997Z,52.98
2018-06-08T21:00:33.777Z,53.59
2018-06-08T21:03:03.571Z,53.10
2018-06-08T21:05:33.341Z,53.32
2018-06-08T21:08:03.065Z,53.48
2018-06-08T21:10:32.841Z,53.94
2018-06-08T21:13:03.197Z,53.68
2018-06-08T21:15:32.983Z,53.85
2018-06-08T21:18:02.729Z,54.20
2018-06-08T21:20:32.624Z,54.34
2018-06-08T21:23:02.362Z,54.60
2018-06-08T21:25:32.098Z,54.67
2018-06-08T21:28:01.895Z,54.34
2018-06-08T21:30:31.641Z,54.46
2018-06-08T21:33:01.434Z,55.01
2018-06-08T21:35:31.209Z,54.73
2018-06-08T21:38:00.949Z,54.69
2018-06-08T21:40:30.739Z,55.12
2018-06-08T21:43:00.498Z,55.74
2018-06-08T21:45:30.273Z,55.12
2018-06-08T21:48:00.021Z,55.74
2018-06-08T21:50:29.816Z,55.18
2018-06-08T21:52:59.557Z,55.91
2018-06-08T21:55:29.403Z,55.45
2018-06-08T21:57:59.353Z,55.54
2018-06-08T22:00:29.097Z,55.95
2018-06-08T22:02:58.920Z,55.67
2018-06-08T22:05:28.653Z,55.71
2018-06-08T22:07:58.477Z,56.23
2018-06-08T22:10:28.249Z,56.34
2018-06-08T22:12:58.115Z,57.22
2018-06-08T22:15:27.873Z,57.18
2018-06-08T22:17:57.685Z,57.66
2018-06-08T22:20:27.501Z,57.65
2018-06-08T22:22:57.328Z,57.49
2018-06-08T22:25:27.148Z,57.66
2018-06-08T22:27:57.567Z,57.82
2018-06-08T22:30:29.199Z,57.31
2018-06-08T22:32:59.005Z,57.62
2018-06-08T22:35:28.737Z,57.86
2018-06-08T22:37:58.528Z,58.35
2018-06-08T22:40:28.266Z,57.76
2018-06-08T22:42:57.993Z,58.08
2018-06-08T22:45:27.789Z,58.28
2018-06-08T22:47:57.521Z,58.35
2018-06-08T22:50:27.301Z,58.18
2018-06-08T22:52:57.045Z,58.83
2018-06-08T22:55:26.804Z,58.37
2018-06-08T22:57:56.669Z,58.87
2018-06-08T23:00:26.420Z,58.73
2018-06-08T23:02:56.183Z,58.72
2018-06-08T23:05:25.922Z,58.82
2018-06-08T23:07:55.747Z,59.31
2018-06-08T23:10:25.489Z,59.46
2018-06-08T23:12:55.277Z,59.16
2018-06-08T23:15:25.074Z,59.65
2018-06-08T23:17:54.886Z,59.61
2018-06-08T23:20:24.689Z,59.63
2018-06-08T23:22:54.417Z,60.16
2018-06-08T23:25:24.198Z,59.88
2018-06-08T23:27:53.985Z,60.11
2018-06-08T23:30:23.730Z,60.10
2018-06-08T23:32:53.493Z,59.93
2018-06-08T23:35:23.325Z,60.07
2018-06-08T23:37:53.082Z,60.48
2018-06-08T23:40:22.842Z,60.12
2018-06-08T23:42:52.622Z,60.56
2018-06-08T23:45:22.361Z,61.40
2018-06-08T23:47:52.148Z,61.50
2018-06-08T23:50:21.885Z,61.79
2018-06-08T23:52:51.615Z,62.29
2018-06-08T23:55:21.436Z,62.29
2018-06-08T23:57:51.188Z,62.13
